createdAt,value
2022-08-30T00:00:33.026Z,6
2022-08-30T00:10:33.199Z,9
2022-08-30T00:20:33.255Z,7
2022-08-30T00:30:34.283Z,6
2022-08-30T00:40:35.329Z,7
2022-08-30T00:50:35.471Z,8
2022-08-30T01:00:35.790Z,7
2022-08-30T01:10:36.189Z,5
2022-08-30T01:20:36.484Z,5
2022-08-30T01:30:36.842Z,6
2022-08-30T01:40:37.219Z,1
2022-08-30T01:50:38.164Z,0
2022-08-30T02:00:38.764Z,0
2022-08-30T02:10:39.047Z,0
2022-08-30T02:20:39.499Z,0
2022-08-30T02:30:39.664Z,0
2022-08-30T02:40:39.948Z,0
2022-08-30T02:50:39.951Z,0
2022-08-30T03:00:40.310Z,0
2022-08-30T03:10:41.121Z,0
2022-08-30T03:20:41.207Z,0
2022-08-30T03:30:42.009Z,0
2022-08-30T03:40:42.864Z,0
2022-08-30T03:50:42.874Z,0
2022-08-30T04:00:43.376Z,0
2022-08-30T04:10:44.177Z,0
2022-08-30T04:20:44.243Z,0
2022-08-30T04:30:44.472Z,0
2022-08-30T04:40:44.845Z,0
2022-08-30T04:50:45.258Z,0
2022-08-30T05:00:45.566Z,0
2022-08-30T05:10:46.071Z,0
2022-08-30T05:20:46.320Z,0
2022-08-30T05:30:47.036Z,0
2022-08-30T05:40:47.589Z,0
2022-08-30T05:50:48.232Z,0
2022-08-30T06:00:48.353Z,0
2022-08-30T06:10:49.077Z,0
2022-08-30T06:20:50.160Z,0
2022-08-30T06:30:49.660Z,0
2022-08-30T06:40:50.034Z,0
2022-08-30T06:50:50.106Z,0
2022-08-30T07:00:50.425Z,0
2022-08-30T07:10:51.366Z,3
2022-08-30T07:20:52.308Z,12
2022-08-30T07:30:53.258Z,27
2022-08-30T07:40:53.951Z,36
2022-08-30T07:50:57.666Z,44
2022-08-30T08:00:55.660Z,51
2022-08-30T08:10:55.803Z,50
2022-08-30T08:20:56.940Z,51
2022-08-30T08:30:56.759Z,54
2022-08-30T08:40:57.001Z,58
2022-08-30T08:51:00.676Z,61
2022-08-30T09:00:58.219Z,65
2022-08-30T09:20:59.107Z,78
2022-08-30T09:30:59.443Z,83
2022-08-30T09:41:00.146Z,84
2022-08-30T09:51:00.504Z,89
2022-08-30T10:01:01.061Z,93
2022-08-30T10:21:02.402Z,98
2022-08-30T10:31:02.954Z,99
2022-08-30T10:41:03.957Z,99
2022-08-30T10:51:04.483Z,100
2022-08-30T11:01:05.961Z,100
2022-08-30T11:11:05.503Z,100
2022-08-30T11:31:07.132Z,100
2022-08-30T11:41:07.561Z,100
2022-08-30T11:51:08.341Z,100
2022-08-30T12:01:16.131Z,100
2022-08-30T12:11:09.444Z,100
2022-08-30T12:21:09.866Z,100
2022-08-30T12:31:10.710Z,100
2022-08-30T12:41:11.238Z,100
2022-08-30T12:51:11.527Z,97
2022-08-30T13:01:12.291Z,99
2022-08-30T13:11:12.598Z,99
2022-08-30T13:21:12.729Z,100
2022-08-30T13:31:19.167Z,99
2022-08-30T13:41:19.292Z,96
2022-08-30T13:51:20.084Z,97
2022-08-30T14:01:20.951Z,96
2022-08-30T14:11:22.312Z,91
2022-08-30T14:21:24.597Z,93
2022-08-30T14:31:23.280Z,93
2022-08-30T14:41:24.221Z,94
2022-08-30T14:51:24.310Z,93
2022-08-30T15:01:24.636Z,91
2022-08-30T15:11:25.623Z,93
2022-08-30T15:21:25.888Z,91
2022-08-30T15:31:26.530Z,92
2022-08-30T15:41:27.516Z,92
2022-08-30T15:51:27.913Z,93
2022-08-30T16:01:30.472Z,93
2022-08-30T16:11:29.077Z,93
2022-08-30T16:21:29.228Z,91
2022-08-30T16:31:30.007Z,91
2022-08-30T16:41:32.350Z,93
2022-08-30T16:51:31.570Z,92
2022-08-30T17:11:33.049Z,96
2022-08-30T17:21:33.328Z,97
2022-08-30T17:31:33.467Z,98
2022-08-30T17:41:34.063Z,99
2022-08-30T17:51:34.648Z,100
2022-08-30T18:01:35.721Z,100
2022-08-30T18:11:36.431Z,100
2022-08-30T18:21:36.692Z,100
2022-08-30T18:31:37.289Z,100
2022-08-30T18:41:41.642Z,100
2022-08-30T18:51:38.249Z,100
2022-08-30T19:01:38.725Z,100
2022-08-30T19:11:39.697Z,100
2022-08-30T19:21:40.278Z,100
2022-08-30T19:31:40.908Z,100
2022-08-30T19:41:41.898Z,100
2022-08-30T19:51:46.605Z,100
2022-08-30T20:01:43.109Z,100
2022-08-30T20:11:43.476Z,100
2022-08-30T20:21:43.978Z,100
2022-08-30T20:31:44.128Z,100
2022-08-30T20:41:44.450Z,100
2022-08-30T20:51:44.401Z,100
2022-08-30T21:01:45.390Z,100
2022-08-30T21:11:45.675Z,100
2022-08-30T21:21:45.969Z,100
2022-08-30T21:31:46.917Z,100
2022-08-30T21:41:47.124Z,100
2022-08-30T21:51:47.903Z,100
2022-08-30T22:11:48.548Z,100
2022-08-30T22:21:49.355Z,100
2022-08-30T22:51:51.317Z,100
2022-08-30T23:01:52.406Z,100
2022-08-30T23:11:53.191Z,100
2022-08-30T23:21:53.509Z,94
2022-08-30T23:31:54.053Z,86
2022-08-30T23:41:55.018Z,74
